sensor_id;sensor_type;location;lat;lon;timestamp;temperature;humidity
22850;DHT22;11591;44.792;10.358;2023-02-01T00:02:08;4.50;99.90
22850;DHT22;11591;44.792;10.358;2023-02-01T00:04:34;4.60;99.90
22850;DHT22;11591;44.792;10.358;2023-02-01T00:07:00;4.60;99.90
22850;DHT22;11591;44.792;10.358;2023-02-01T00:09:26;4.60;99.90
22850;DHT22;11591;44.792;10.358;2023-02-01T00:11:52;4.50;99.90
22850;DHT22;11591;44.792;10.358;2023-02-01T00:14:18;4.50;99.90
22850;DHT22;11591;44.792;10.358;2023-02-01T00:16:44;4.50;99.90
22850;DHT22;11591;44.792;10.358;2023-02-01T00:19:13;4.50;99.90
22850;DHT22;11591;44.792;10.358;2023-02-01T00:21:39;4.50;99.90
22850;DHT22;11591;44.792;10.358;2023-02-01T00:24:05;4.50;99.90
22850;DHT22;11591;44.792;10.358;2023-02-01T00:28:57;4.40;99.90
22850;DHT22;11591;44.792;10.358;2023-02-01T00:31:23;4.40;99.90
22850;DHT22;11591;44.792;10.358;2023-02-01T00:33:49;4.40;99.90
22850;DHT22;11591;44.792;10.358;2023-02-01T00:36:15;4.40;99.90
22850;DHT22;11591;44.792;10.358;2023-02-01T00:38:41;4.40;99.90
22850;DHT22;11591;44.792;10.358;2023-02-01T00:41:10;4.40;99.90
22850;DHT22;11591;44.792;10.358;2023-02-01T00:43:37;4.40;99.90
22850;DHT22;11591;44.792;10.358;2023-02-01T00:46:03;4.40;99.90
22850;DHT22;11591;44.792;10.358;2023-02-01T00:48:29;4.40;99.90
22850;DHT22;11591;44.792;10.358;2023-02-01T00:51:06;4.40;99.90
22850;DHT22;11591;44.792;10.358;2023-02-01T00:53:32;4.40;99.90
22850;DHT22;11591;44.792;10.358;2023-02-01T00:55:58;4.40;99.90
22850;DHT22;11591;44.792;10.358;2023-02-01T00:58:24;4.40;99.90
22850;DHT22;11591;44.792;10.358;2023-02-01T01:01:21;4.40;99.90
22850;DHT22;11591;44.792;10.358;2023-02-01T01:03:53;4.40;99.90
22850;DHT22;11591;44.792;10.358;2023-02-01T01:06:23;4.40;99.90
22850;DHT22;11591;44.792;10.358;2023-02-01T01:08:51;4.50;99.90
22850;DHT22;11591;44.792;10.358;2023-02-01T01:11:22;4.50;99.90
22850;DHT22;11591;44.792;10.358;2023-02-01T01:13:50;4.50;99.90
22850;DHT22;11591;44.792;10.358;2023-02-01T01:16:17;4.50;99.90
22850;DHT22;11591;44.792;10.358;2023-02-01T01:18:43;4.60;99.90
22850;DHT22;11591;44.792;10.358;2023-02-01T01:21:11;4.50;99.90
22850;DHT22;11591;44.792;10.358;2023-02-01T01:23:37;4.50;99.90
22850;DHT22;11591;44.792;10.358;2023-02-01T01:26:09;4.40;99.90
22850;DHT22;11591;44.792;10.358;2023-02-01T01:28:35;4.40;99.90
22850;DHT22;11591;44.792;10.358;2023-02-01T01:31:01;4.40;99.90
22850;DHT22;11591;44.792;10.358;2023-02-01T01:33:26;4.30;99.90
22850;DHT22;11591;44.792;10.358;2023-02-01T01:35:52;4.30;99.90
22850;DHT22;11591;44.792;10.358;2023-02-01T01:38:18;4.20;99.90
22850;DHT22;11591;44.792;10.358;2023-02-01T01:40:47;4.20;99.90
22850;DHT22;11591;44.792;10.358;2023-02-01T01:43:17;4.30;99.90
22850;DHT22;11591;44.792;10.358;2023-02-01T01:45:45;4.20;99.90
22850;DHT22;11591;44.792;10.358;2023-02-01T01:50:47;4.10;99.90
22850;DHT22;11591;44.792;10.358;2023-02-01T01:53:27;4.10;99.90
22850;DHT22;11591;44.792;10.358;2023-02-01T01:55:54;4.10;99.90
22850;DHT22;11591;44.792;10.358;2023-02-01T01:58:24;4.00;99.90
22850;DHT22;11591;44.792;10.358;2023-02-01T02:00:51;4.00;99.90
22850;DHT22;11591;44.792;10.358;2023-02-01T02:03:21;4.00;99.90
22850;DHT22;11591;44.792;10.358;2023-02-01T02:05:49;4.10;99.90
22850;DHT22;11591;44.792;10.358;2023-02-01T02:08:18;4.00;99.90
22850;DHT22;11591;44.792;10.358;2023-02-01T02:10:50;4.00;99.90
22850;DHT22;11591;44.792;10.358;2023-02-01T02:13:38;4.10;99.90
22850;DHT22;11591;44.792;10.358;2023-02-01T02:17:03;4.00;99.90
22850;DHT22;11591;44.792;10.358;2023-02-01T02:22:43;4.00;99.90
22850;DHT22;11591;44.792;10.358;2023-02-01T02:25:55;3.90;99.90
22850;DHT22;11591;44.792;10.358;2023-02-01T02:31:26;3.70;99.90
22850;DHT22;11591;44.792;10.358;2023-02-01T02:40:06;3.60;99.90
22850;DHT22;11591;44.792;10.358;2023-02-01T02:46:00;3.60;99.90
22850;DHT22;11591;44.792;10.358;2023-02-01T02:48:59;3.70;99.90
22850;DHT22;11591;44.792;10.358;2023-02-01T02:51:45;3.70;99.90
22850;DHT22;11591;44.792;10.358;2023-02-01T02:54:34;3.70;99.90
22850;DHT22;11591;44.792;10.358;2023-02-01T02:57:18;3.80;99.90
22850;DHT22;11591;44.792;10.358;2023-02-01T03:00:07;3.80;99.90
22850;DHT22;11591;44.792;10.358;2023-02-01T03:02:52;3.70;99.90
22850;DHT22;11591;44.792;10.358;2023-02-01T03:05:41;3.70;99.90
22850;DHT22;11591;44.792;10.358;2023-02-01T03:08:24;3.70;99.90
22850;DHT22;11591;44.792;10.358;2023-02-01T03:11:07;3.70;99.90
22850;DHT22;11591;44.792;10.358;2023-02-01T03:13:53;3.70;99.90
22850;DHT22;11591;44.792;10.358;2023-02-01T03:16:31;3.70;99.90
22850;DHT22;11591;44.792;10.358;2023-02-01T03:21:59;3.60;99.90
22850;DHT22;11591;44.792;10.358;2023-02-01T03:24:37;3.60;99.90
22850;DHT22;11591;44.792;10.358;2023-02-01T03:27:05;3.60;99.90
22850;DHT22;11591;44.792;10.358;2023-02-01T03:29:42;3.70;99.90
22850;DHT22;11591;44.792;10.358;2023-02-01T03:32:10;3.60;99.90
22850;DHT22;11591;44.792;10.358;2023-02-01T03:34:36;3.60;99.90
22850;DHT22;11591;44.792;10.358;2023-02-01T03:37:15;3.60;99.90
22850;DHT22;11591;44.792;10.358;2023-02-01T03:40:03;3.60;99.90
22850;DHT22;11591;44.792;10.358;2023-02-01T03:42:42;3.60;99.90
22850;DHT22;11591;44.792;10.358;2023-02-01T03:45:36;3.60;99.90
22850;DHT22;11591;44.792;10.358;2023-02-01T03:48:07;3.70;99.90
22850;DHT22;11591;44.792;10.358;2023-02-01T03:50:35;3.60;99.90
22850;DHT22;11591;44.792;10.358;2023-02-01T03:53:06;3.60;99.90
22850;DHT22;11591;44.792;10.358;2023-02-01T03:55:35;3.70;99.90
22850;DHT22;11591;44.792;10.358;2023-02-01T03:58:21;3.70;99.90
22850;DHT22;11591;44.792;10.358;2023-02-01T04:00:59;3.60;99.90
22850;DHT22;11591;44.792;10.358;2023-02-01T04:03:27;3.70;99.90
22850;DHT22;11591;44.792;10.358;2023-02-01T04:05:53;3.60;99.90
22850;DHT22;11591;44.792;10.358;2023-02-01T04:08:23;3.60;99.90
22850;DHT22;11591;44.792;10.358;2023-02-01T04:10:49;3.60;99.90
22850;DHT22;11591;44.792;10.358;2023-02-01T04:13:15;3.60;99.90
22850;DHT22;11591;44.792;10.358;2023-02-01T04:15:41;3.60;99.90
22850;DHT22;11591;44.792;10.358;2023-02-01T04:18:06;3.60;99.90
22850;DHT22;11591;44.792;10.358;2023-02-01T04:20:32;3.50;99.90
22850;DHT22;11591;44.792;10.358;2023-02-01T04:22:58;3.50;99.90
22850;DHT22;11591;44.792;10.358;2023-02-01T04:25:24;3.50;99.90
22850;DHT22;11591;44.792;10.358;2023-02-01T04:27:51;3.40;99.90
22850;DHT22;11591;44.792;10.358;2023-02-01T04:30:17;3.50;99.90
22850;DHT22;11591;44.792;10.358;2023-02-01T04:32:42;3.40;99.90
22850;DHT22;11591;44.792;10.358;2023-02-01T04:35:08;3.40;99.90
22850;DHT22;11591;44.792;10.358;2023-02-01T04:37:34;3.40;99.90
22850;DHT22;11591;44.792;10.358;2023-02-01T04:40:00;3.40;99.90
22850;DHT22;11591;44.792;10.358;2023-02-01T04:42:27;3.40;99.90
22850;DHT22;11591;44.792;10.358;2023-02-01T04:44:53;3.40;99.90
22850;DHT22;11591;44.792;10.358;2023-02-01T04:47:19;3.40;99.90
22850;DHT22;11591;44.792;10.358;2023-02-01T04:49:44;3.40;99.90
22850;DHT22;11591;44.792;10.358;2023-02-01T04:52:10;3.40;99.90
22850;DHT22;11591;44.792;10.358;2023-02-01T04:54:36;3.40;99.90
22850;DHT22;11591;44.792;10.358;2023-02-01T04:57:02;3.40;99.90
22850;DHT22;11591;44.792;10.358;2023-02-01T04:59:27;3.50;99.90
22850;DHT22;11591;44.792;10.358;2023-02-01T05:01:54;3.40;99.90
22850;DHT22;11591;44.792;10.358;2023-02-01T05:04:20;3.50;99.90
22850;DHT22;11591;44.792;10.358;2023-02-01T05:06:46;3.40;99.90
22850;DHT22;11591;44.792;10.358;2023-02-01T05:09:11;3.50;99.90
22850;DHT22;11591;44.792;10.358;2023-02-01T05:11:38;3.50;99.90
22850;DHT22;11591;44.792;10.358;2023-02-01T05:14:22;3.40;99.90
22850;DHT22;11591;44.792;10.358;2023-02-01T05:16:48;3.50;99.90
22850;DHT22;11591;44.792;10.358;2023-02-01T05:19:14;3.40;99.90
22850;DHT22;11591;44.792;10.358;2023-02-01T05:21:39;3.40;99.90
22850;DHT22;11591;44.792;10.358;2023-02-01T05:24:07;3.40;99.90
22850;DHT22;11591;44.792;10.358;2023-02-01T05:26:36;3.40;99.90
22850;DHT22;11591;44.792;10.358;2023-02-01T05:29:04;3.40;99.90
22850;DHT22;11591;44.792;10.358;2023-02-01T05:31:30;3.40;99.90
22850;DHT22;11591;44.792;10.358;2023-02-01T05:33:55;3.30;99.90
22850;DHT22;11591;44.792;10.358;2023-02-01T05:36:21;3.30;99.90
22850;DHT22;11591;44.792;10.358;2023-02-01T05:38:47;3.30;99.90
22850;DHT22;11591;44.792;10.358;2023-02-01T05:41:13;3.20;99.90
22850;DHT22;11591;44.792;10.358;2023-02-01T05:43:39;3.20;99.90
22850;DHT22;11591;44.792;10.358;2023-02-01T05:46:04;3.20;99.90
22850;DHT22;11591;44.792;10.358;2023-02-01T05:48:30;3.30;99.90
22850;DHT22;11591;44.792;10.358;2023-02-01T05:50:56;3.30;99.90
22850;DHT22;11591;44.792;10.358;2023-02-01T05:53:22;3.30;99.90
22850;DHT22;11591;44.792;10.358;2023-02-01T05:55:48;3.30;99.90
22850;DHT22;11591;44.792;10.358;2023-02-01T05:58:13;3.30;99.90
22850;DHT22;11591;44.792;10.358;2023-02-01T06:00:40;3.30;99.90
22850;DHT22;11591;44.792;10.358;2023-02-01T06:03:06;3.30;99.90
22850;DHT22;11591;44.792;10.358;2023-02-01T06:05:32;3.30;99.90
22850;DHT22;11591;44.792;10.358;2023-02-01T06:07:58;3.30;99.90
22850;DHT22;11591;44.792;10.358;2023-02-01T06:10:24;3.30;99.90
22850;DHT22;11591;44.792;10.358;2023-02-01T06:12:50;3.20;99.90
22850;DHT22;11591;44.792;10.358;2023-02-01T06:15:15;3.30;99.90
22850;DHT22;11591;44.792;10.358;2023-02-01T06:17:43;3.20;99.90
22850;DHT22;11591;44.792;10.358;2023-02-01T06:20:10;3.30;99.90
22850;DHT22;11591;44.792;10.358;2023-02-01T06:22:36;3.20;99.90
22850;DHT22;11591;44.792;10.358;2023-02-01T06:25:03;3.20;99.90
22850;DHT22;11591;44.792;10.358;2023-02-01T06:27:29;3.20;99.90
22850;DHT22;11591;44.792;10.358;2023-02-01T06:29:55;3.10;99.90
22850;DHT22;11591;44.792;10.358;2023-02-01T06:32:21;3.10;99.90
22850;DHT22;11591;44.792;10.358;2023-02-01T06:34:48;3.10;99.90
22850;DHT22;11591;44.792;10.358;2023-02-01T06:37:14;3.00;99.90
22850;DHT22;11591;44.792;10.358;2023-02-01T06:39:39;3.00;99.90
22850;DHT22;11591;44.792;10.358;2023-02-01T06:42:05;3.00;99.90
22850;DHT22;11591;44.792;10.358;2023-02-01T06:44:31;3.10;99.90
22850;DHT22;11591;44.792;10.358;2023-02-01T06:46:57;3.20;99.90
22850;DHT22;11591;44.792;10.358;2023-02-01T06:49:22;3.20;99.90
22850;DHT22;11591;44.792;10.358;2023-02-01T06:51:48;3.30;99.90
22850;DHT22;11591;44.792;10.358;2023-02-01T06:54:14;3.20;99.90
22850;DHT22;11591;44.792;10.358;2023-02-01T06:56:40;3.20;99.90
22850;DHT22;11591;44.792;10.358;2023-02-01T06:59:07;3.30;99.90
22850;DHT22;11591;44.792;10.358;2023-02-01T07:01:33;3.30;99.90
22850;DHT22;11591;44.792;10.358;2023-02-01T07:04:00;3.20;99.90
22850;DHT22;11591;44.792;10.358;2023-02-01T07:06:25;3.20;99.90
22850;DHT22;11591;44.792;10.358;2023-02-01T07:08:51;3.20;99.90
22850;DHT22;11591;44.792;10.358;2023-02-01T07:11:18;3.20;99.90
22850;DHT22;11591;44.792;10.358;2023-02-01T07:13:44;3.20;99.90
22850;DHT22;11591;44.792;10.358;2023-02-01T07:16:14;3.20;99.90
22850;DHT22;11591;44.792;10.358;2023-02-01T07:18:40;3.20;99.90
22850;DHT22;11591;44.792;10.358;2023-02-01T07:21:07;3.20;99.90
22850;DHT22;11591;44.792;10.358;2023-02-01T07:23:33;3.10;99.90
22850;DHT22;11591;44.792;10.358;2023-02-01T07:26:01;3.20;99.90
22850;DHT22;11591;44.792;10.358;2023-02-01T07:28:30;3.20;99.90
22850;DHT22;11591;44.792;10.358;2023-02-01T07:33:30;3.20;99.90
22850;DHT22;11591;44.792;10.358;2023-02-01T07:35:56;3.20;99.90
22850;DHT22;11591;44.792;10.358;2023-02-01T07:38:22;3.20;99.90
22850;DHT22;11591;44.792;10.358;2023-02-01T07:40:49;3.30;99.90
22850;DHT22;11591;44.792;10.358;2023-02-01T07:43:15;3.40;99.90
22850;DHT22;11591;44.792;10.358;2023-02-01T07:45:41;3.40;99.90
22850;DHT22;11591;44.792;10.358;2023-02-01T07:48:07;3.50;99.90
22850;DHT22;11591;44.792;10.358;2023-02-01T07:50:33;3.60;99.90
22850;DHT22;11591;44.792;10.358;2023-02-01T07:53:00;3.70;99.90
22850;DHT22;11591;44.792;10.358;2023-02-01T07:55:26;3.80;99.90
22850;DHT22;11591;44.792;10.358;2023-02-01T07:57:52;3.80;99.90
22850;DHT22;11591;44.792;10.358;2023-02-01T08:00:21;3.90;99.90
22850;DHT22;11591;44.792;10.358;2023-02-01T08:03:06;4.00;99.90
22850;DHT22;11591;44.792;10.358;2023-02-01T08:05:32;4.10;99.90
22850;DHT22;11591;44.792;10.358;2023-02-01T08:07:58;4.20;99.90
22850;DHT22;11591;44.792;10.358;2023-02-01T08:10:23;4.20;99.90
22850;DHT22;11591;44.792;10.358;2023-02-01T08:12:49;4.30;99.90
22850;DHT22;11591;44.792;10.358;2023-02-01T08:15:18;4.40;99.90
22850;DHT22;11591;44.792;10.358;2023-02-01T08:17:48;4.50;99.90
22850;DHT22;11591;44.792;10.358;2023-02-01T08:20:14;4.60;99.90
22850;DHT22;11591;44.792;10.358;2023-02-01T08:22:40;4.60;99.90
22850;DHT22;11591;44.792;10.358;2023-02-01T08:25:06;4.70;99.90
22850;DHT22;11591;44.792;10.358;2023-02-01T08:27:33;4.80;99.90
22850;DHT22;11591;44.792;10.358;2023-02-01T08:29:59;4.80;99.90
22850;DHT22;11591;44.792;10.358;2023-02-01T08:32:26;4.90;99.90
22850;DHT22;11591;44.792;10.358;2023-02-01T08:34:52;4.90;99.90
22850;DHT22;11591;44.792;10.358;2023-02-01T08:37:18;5.00;99.90
22850;DHT22;11591;44.792;10.358;2023-02-01T08:39:44;5.00;99.90
22850;DHT22;11591;44.792;10.358;2023-02-01T08:42:10;5.00;99.90
22850;DHT22;11591;44.792;10.358;2023-02-01T08:44:55;5.00;99.90
22850;DHT22;11591;44.792;10.358;2023-02-01T08:47:21;5.00;99.90
22850;DHT22;11591;44.792;10.358;2023-02-01T08:49:47;4.90;99.90
22850;DHT22;11591;44.792;10.358;2023-02-01T08:52:13;4.90;99.90
22850;DHT22;11591;44.792;10.358;2023-02-01T08:54:38;4.90;99.90
22850;DHT22;11591;44.792;10.358;2023-02-01T08:57:06;5.00;99.90
22850;DHT22;11591;44.792;10.358;2023-02-01T08:59:32;5.00;99.90
22850;DHT22;11591;44.792;10.358;2023-02-01T09:01:58;5.10;99.90
22850;DHT22;11591;44.792;10.358;2023-02-01T09:04:24;5.10;99.90
22850;DHT22;11591;44.792;10.358;2023-02-01T09:06:49;5.20;99.90
22850;DHT22;11591;44.792;10.358;2023-02-01T09:09:15;5.30;99.90
22850;DHT22;11591;44.792;10.358;2023-02-01T09:11:41;5.40;99.90
22850;DHT22;11591;44.792;10.358;2023-02-01T09:14:07;5.50;99.90
22850;DHT22;11591;44.792;10.358;2023-02-01T09:16:33;5.60;99.90
22850;DHT22;11591;44.792;10.358;2023-02-01T09:18:58;5.70;99.90
22850;DHT22;11591;44.792;10.358;2023-02-01T09:21:24;5.80;99.90
22850;DHT22;11591;44.792;10.358;2023-02-01T09:23:51;5.80;99.90
22850;DHT22;11591;44.792;10.358;2023-02-01T09:26:17;5.80;99.90
22850;DHT22;11591;44.792;10.358;2023-02-01T09:28:43;5.90;99.90
22850;DHT22;11591;44.792;10.358;2023-02-01T09:31:09;5.90;99.90
22850;DHT22;11591;44.792;10.358;2023-02-01T09:33:36;5.90;99.90
22850;DHT22;11591;44.792;10.358;2023-02-01T09:36:05;5.90;99.90
22850;DHT22;11591;44.792;10.358;2023-02-01T09:38:32;5.80;99.90
22850;DHT22;11591;44.792;10.358;2023-02-01T09:40:58;5.80;99.90
22850;DHT22;11591;44.792;10.358;2023-02-01T09:48:33;5.90;99.90
22850;DHT22;11591;44.792;10.358;2023-02-01T09:51:04;6.00;99.90
22850;DHT22;11591;44.792;10.358;2023-02-01T09:53:34;6.00;99.90
22850;DHT22;11591;44.792;10.358;2023-02-01T09:56:07;6.00;99.90
22850;DHT22;11591;44.792;10.358;2023-02-01T09:58:47;6.10;99.90
22850;DHT22;11591;44.792;10.358;2023-02-01T10:01:20;6.10;99.90
22850;DHT22;11591;44.792;10.358;2023-02-01T10:03:53;6.10;99.90
22850;DHT22;11591;44.792;10.358;2023-02-01T10:09:25;6.30;99.90
22850;DHT22;11591;44.792;10.358;2023-02-01T10:23:42;6.60;99.90
22850;DHT22;11591;44.792;10.358;2023-02-01T10:26:22;6.60;99.90
22850;DHT22;11591;44.792;10.358;2023-02-01T10:28:58;6.70;99.90
22850;DHT22;11591;44.792;10.358;2023-02-01T10:31:34;6.80;99.90
22850;DHT22;11591;44.792;10.358;2023-02-01T10:34:21;6.80;99.90
22850;DHT22;11591;44.792;10.358;2023-02-01T10:37:07;6.90;99.90
22850;DHT22;11591;44.792;10.358;2023-02-01T10:39:33;6.90;99.90
22850;DHT22;11591;44.792;10.358;2023-02-01T10:41:59;6.90;99.90
22850;DHT22;11591;44.792;10.358;2023-02-01T10:44:28;7.00;99.90
22850;DHT22;11591;44.792;10.358;2023-02-01T10:46:55;7.00;99.90
22850;DHT22;11591;44.792;10.358;2023-02-01T10:49:33;7.00;99.90
22850;DHT22;11591;44.792;10.358;2023-02-01T10:52:05;7.10;99.90
22850;DHT22;11591;44.792;10.358;2023-02-01T10:54:37;7.20;99.90
22850;DHT22;11591;44.792;10.358;2023-02-01T10:57:25;7.30;99.90
22850;DHT22;11591;44.792;10.358;2023-02-01T10:59:53;7.40;99.90
22850;DHT22;11591;44.792;10.358;2023-02-01T11:02:32;7.40;99.90
22850;DHT22;11591;44.792;10.358;2023-02-01T11:05:04;7.50;99.90
22850;DHT22;11591;44.792;10.358;2023-02-01T11:07:31;7.50;99.90
22850;DHT22;11591;44.792;10.358;2023-02-01T11:09:58;7.60;99.90
22850;DHT22;11591;44.792;10.358;2023-02-01T11:15:19;7.70;99.90
22850;DHT22;11591;44.792;10.358;2023-02-01T11:17:48;7.80;99.90
22850;DHT22;11591;44.792;10.358;2023-02-01T11:22:58;7.90;99.90
22850;DHT22;11591;44.792;10.358;2023-02-01T11:25:24;8.00;99.90
22850;DHT22;11591;44.792;10.358;2023-02-01T11:27:53;8.00;99.90
22850;DHT22;11591;44.792;10.358;2023-02-01T11:32:56;8.10;99.90
22850;DHT22;11591;44.792;10.358;2023-02-01T11:35:23;8.30;99.90
22850;DHT22;11591;44.792;10.358;2023-02-01T11:37:57;8.30;99.90
22850;DHT22;11591;44.792;10.358;2023-02-01T11:40:37;8.50;99.90
22850;DHT22;11591;44.792;10.358;2023-02-01T11:45:40;8.60;99.90
22850;DHT22;11591;44.792;10.358;2023-02-01T11:48:17;8.60;99.90
22850;DHT22;11591;44.792;10.358;2023-02-01T11:56:46;8.70;99.90
22850;DHT22;11591;44.792;10.358;2023-02-01T11:59:19;8.80;99.90
22850;DHT22;11591;44.792;10.358;2023-02-01T12:13:29;9.10;99.90
22850;DHT22;11591;44.792;10.358;2023-02-01T12:16:10;9.10;99.90
22850;DHT22;11591;44.792;10.358;2023-02-01T12:34:43;9.30;99.90
22850;DHT22;11591;44.792;10.358;2023-02-01T12:45:26;9.40;99.90
22850;DHT22;11591;44.792;10.358;2023-02-01T12:48:04;9.40;99.90
22850;DHT22;11591;44.792;10.358;2023-02-01T12:50:45;9.40;99.90
22850;DHT22;11591;44.792;10.358;2023-02-01T12:53:15;9.50;99.90
22850;DHT22;11591;44.792;10.358;2023-02-01T12:55:53;9.50;99.90
22850;DHT22;11591;44.792;10.358;2023-02-01T12:58:40;9.50;99.90
22850;DHT22;11591;44.792;10.358;2023-02-01T13:01:16;9.60;99.90
22850;DHT22;11591;44.792;10.358;2023-02-01T13:04:25;9.70;99.90
22850;DHT22;11591;44.792;10.358;2023-02-01T13:06:58;9.70;99.90
22850;DHT22;11591;44.792;10.358;2023-02-01T13:12:19;9.80;99.90
22850;DHT22;11591;44.792;10.358;2023-02-01T13:14:52;9.90;99.90
22850;DHT22;11591;44.792;10.358;2023-02-01T13:17:31;9.90;99.90
22850;DHT22;11591;44.792;10.358;2023-02-01T13:20:13;9.90;99.90
22850;DHT22;11591;44.792;10.358;2023-02-01T13:23:19;9.90;99.90
22850;DHT22;11591;44.792;10.358;2023-02-01T13:42:27;10.30;99.90
22850;DHT22;11591;44.792;10.358;2023-02-01T13:45:17;10.30;99.90
22850;DHT22;11591;44.792;10.358;2023-02-01T13:47:47;10.30;99.90
22850;DHT22;11591;44.792;10.358;2023-02-01T13:53:03;10.50;99.90
22850;DHT22;11591;44.792;10.358;2023-02-01T13:55:38;10.60;99.90
22850;DHT22;11591;44.792;10.358;2023-02-01T13:58:37;10.90;99.90
22850;DHT22;11591;44.792;10.358;2023-02-01T14:06:40;11.90;99.90
22850;DHT22;11591;44.792;10.358;2023-02-01T14:14:48;12.80;99.90
22850;DHT22;11591;44.792;10.358;2023-02-01T14:17:29;13.20;99.90
22850;DHT22;11591;44.792;10.358;2023-02-01T14:23:21;14.00;99.90
22850;DHT22;11591;44.792;10.358;2023-02-01T14:26:02;14.40;99.90
22850;DHT22;11591;44.792;10.358;2023-02-01T14:28:29;14.60;99.90
22850;DHT22;11591;44.792;10.358;2023-02-01T14:30:57;14.80;99.90
22850;DHT22;11591;44.792;10.358;2023-02-01T14:33:25;14.90;99.90
22850;DHT22;11591;44.792;10.358;2023-02-01T14:36:12;14.90;99.90
22850;DHT22;11591;44.792;10.358;2023-02-01T14:38:39;15.00;99.90
22850;DHT22;11591;44.792;10.358;2023-02-01T14:41:33;15.10;99.90
22850;DHT22;11591;44.792;10.358;2023-02-01T14:47:04;15.20;99.90
22850;DHT22;11591;44.792;10.358;2023-02-01T14:49:39;15.20;99.90
22850;DHT22;11591;44.792;10.358;2023-02-01T14:52:12;15.40;99.90
22850;DHT22;11591;44.792;10.358;2023-02-01T14:54:40;15.40;99.90
22850;DHT22;11591;44.792;10.358;2023-02-01T14:57:15;15.40;99.90
22850;DHT22;11591;44.792;10.358;2023-02-01T14:59:43;15.60;99.90
22850;DHT22;11591;44.792;10.358;2023-02-01T15:02:24;15.70;99.90
22850;DHT22;11591;44.792;10.358;2023-02-01T15:04:55;15.80;99.90
22850;DHT22;11591;44.792;10.358;2023-02-01T15:07:22;15.90;99.90
22850;DHT22;11591;44.792;10.358;2023-02-01T15:09:50;16.00;99.90
22850;DHT22;11591;44.792;10.358;2023-02-01T15:12:22;16.00;99.90
22850;DHT22;11591;44.792;10.358;2023-02-01T15:15:20;16.10;99.90
22850;DHT22;11591;44.792;10.358;2023-02-01T15:18:04;16.10;99.90
22850;DHT22;11591;44.792;10.358;2023-02-01T15:20:31;16.20;99.90
22850;DHT22;11591;44.792;10.358;2023-02-01T15:23:04;16.30;99.90
22850;DHT22;11591;44.792;10.358;2023-02-01T15:25:35;16.30;99.90
22850;DHT22;11591;44.792;10.358;2023-02-01T15:28:02;16.00;99.90
22850;DHT22;11591;44.792;10.358;2023-02-01T15:30:33;16.00;99.90
22850;DHT22;11591;44.792;10.358;2023-02-01T15:38:31;15.80;99.90
22850;DHT22;11591;44.792;10.358;2023-02-01T15:41:01;15.70;99.90
22850;DHT22;11591;44.792;10.358;2023-02-01T15:43:29;15.60;99.90
22850;DHT22;11591;44.792;10.358;2023-02-01T15:46:00;15.40;99.90
22850;DHT22;11591;44.792;10.358;2023-02-01T15:48:32;15.20;99.90
22850;DHT22;11591;44.792;10.358;2023-02-01T15:50:59;15.00;99.90
22850;DHT22;11591;44.792;10.358;2023-02-01T15:53:26;14.90;99.90
22850;DHT22;11591;44.792;10.358;2023-02-01T15:55:59;14.60;99.90
22850;DHT22;11591;44.792;10.358;2023-02-01T15:58:27;14.30;99.90
22850;DHT22;11591;44.792;10.358;2023-02-01T16:00:59;14.20;99.90
22850;DHT22;11591;44.792;10.358;2023-02-01T16:03:44;14.00;99.90
22850;DHT22;11591;44.792;10.358;2023-02-01T16:08:52;13.70;99.90
22850;DHT22;11591;44.792;10.358;2023-02-01T16:13:50;13.40;99.90
22850;DHT22;11591;44.792;10.358;2023-02-01T16:16:16;13.20;99.90
22850;DHT22;11591;44.792;10.358;2023-02-01T16:18:43;13.00;99.90
22850;DHT22;11591;44.792;10.358;2023-02-01T16:21:09;12.80;99.90
22850;DHT22;11591;44.792;10.358;2023-02-01T16:23:36;12.70;99.90
22850;DHT22;11591;44.792;10.358;2023-02-01T16:26:03;12.40;99.90
22850;DHT22;11591;44.792;10.358;2023-02-01T16:28:28;12.30;99.90
22850;DHT22;11591;44.792;10.358;2023-02-01T16:30:54;12.10;99.90
22850;DHT22;11591;44.792;10.358;2023-02-01T16:33:22;11.90;99.90
22850;DHT22;11591;44.792;10.358;2023-02-01T16:35:49;11.80;99.90
22850;DHT22;11591;44.792;10.358;2023-02-01T16:38:17;11.70;99.90
22850;DHT22;11591;44.792;10.358;2023-02-01T16:40:45;11.60;99.90
22850;DHT22;11591;44.792;10.358;2023-02-01T16:43:20;11.50;99.90
22850;DHT22;11591;44.792;10.358;2023-02-01T16:45:48;11.40;99.90
22850;DHT22;11591;44.792;10.358;2023-02-01T16:48:34;11.30;99.90
22850;DHT22;11591;44.792;10.358;2023-02-01T16:51:04;11.20;99.90
22850;DHT22;11591;44.792;10.358;2023-02-01T16:53:33;11.00;99.90
22850;DHT22;11591;44.792;10.358;2023-02-01T16:55:59;10.90;99.90
22850;DHT22;11591;44.792;10.358;2023-02-01T16:58:26;10.90;99.90
22850;DHT22;11591;44.792;10.358;2023-02-01T17:00:52;10.80;99.90
22850;DHT22;11591;44.792;10.358;2023-02-01T17:03:20;10.70;99.90
22850;DHT22;11591;44.792;10.358;2023-02-01T17:05:49;10.60;99.90
22850;DHT22;11591;44.792;10.358;2023-02-01T17:08:18;10.50;99.90
22850;DHT22;11591;44.792;10.358;2023-02-01T17:10:45;10.40;99.90
22850;DHT22;11591;44.792;10.358;2023-02-01T17:13:15;10.30;99.90
22850;DHT22;11591;44.792;10.358;2023-02-01T17:15:52;10.30;99.90
22850;DHT22;11591;44.792;10.358;2023-02-01T17:18:19;10.20;99.90
22850;DHT22;11591;44.792;10.358;2023-02-01T17:20:45;10.20;99.90
22850;DHT22;11591;44.792;10.358;2023-02-01T17:23:14;10.20;99.90
22850;DHT22;11591;44.792;10.358;2023-02-01T17:25:40;10.10;99.90
22850;DHT22;11591;44.792;10.358;2023-02-01T17:28:08;10.00;99.90
22850;DHT22;11591;44.792;10.358;2023-02-01T17:30:34;10.00;99.90
22850;DHT22;11591;44.792;10.358;2023-02-01T17:33:00;9.90;99.90
22850;DHT22;11591;44.792;10.358;2023-02-01T17:35:27;9.90;99.90
22850;DHT22;11591;44.792;10.358;2023-02-01T17:37:54;9.90;99.90
22850;DHT22;11591;44.792;10.358;2023-02-01T17:40:20;9.80;99.90
22850;DHT22;11591;44.792;10.358;2023-02-01T17:42:46;9.80;99.90
22850;DHT22;11591;44.792;10.358;2023-02-01T17:48:04;9.70;99.90
22850;DHT22;11591;44.792;10.358;2023-02-01T17:50:33;9.60;99.90
22850;DHT22;11591;44.792;10.358;2023-02-01T17:53:00;9.50;99.90
22850;DHT22;11591;44.792;10.358;2023-02-01T17:55:28;9.50;99.90
22850;DHT22;11591;44.792;10.358;2023-02-01T17:57:53;9.40;99.90
22850;DHT22;11591;44.792;10.358;2023-02-01T18:00:20;9.40;99.90
22850;DHT22;11591;44.792;10.358;2023-02-01T18:02:46;9.30;99.90
22850;DHT22;11591;44.792;10.358;2023-02-01T18:07:40;9.20;99.90
22850;DHT22;11591;44.792;10.358;2023-02-01T18:10:07;9.20;99.90
22850;DHT22;11591;44.792;10.358;2023-02-01T18:12:34;9.30;99.90
22850;DHT22;11591;44.792;10.358;2023-02-01T18:15:00;9.20;99.90
22850;DHT22;11591;44.792;10.358;2023-02-01T18:17:26;9.20;99.90
22850;DHT22;11591;44.792;10.358;2023-02-01T18:19:52;9.20;99.90
22850;DHT22;11591;44.792;10.358;2023-02-01T18:22:21;9.10;99.90